sensor_id;sensor_type;location;lat;lon;timestamp;temperature;humidity
17348;DHT22;8791;50.876;4.342;2024-02-26T00:02:02;6.90;99.90
17348;DHT22;8791;50.876;4.342;2024-02-26T00:04:29;6.90;99.90
17348;DHT22;8791;50.876;4.342;2024-02-26T00:06:56;6.90;99.90
17348;DHT22;8791;50.876;4.342;2024-02-26T00:09:23;6.80;99.90
17348;DHT22;8791;50.876;4.342;2024-02-26T00:11:50;6.80;99.90
17348;DHT22;8791;50.876;4.342;2024-02-26T00:14:17;6.80;99.90
17348;DHT22;8791;50.876;4.342;2024-02-26T00:16:45;6.80;99.90
17348;DHT22;8791;50.876;4.342;2024-02-26T00:19:12;6.70;99.90
17348;DHT22;8791;50.876;4.342;2024-02-26T00:21:40;6.70;99.90
17348;DHT22;8791;50.876;4.342;2024-02-26T00:24:07;6.80;99.90
17348;DHT22;8791;50.876;4.342;2024-02-26T00:26:34;6.80;99.90
17348;DHT22;8791;50.876;4.342;2024-02-26T00:29:01;6.70;99.90
17348;DHT22;8791;50.876;4.342;2024-02-26T00:31:28;6.70;99.90
17348;DHT22;8791;50.876;4.342;2024-02-26T00:33:56;6.70;99.90
17348;DHT22;8791;50.876;4.342;2024-02-26T00:36:23;6.70;99.90
17348;DHT22;8791;50.876;4.342;2024-02-26T00:38:50;6.60;99.90
17348;DHT22;8791;50.876;4.342;2024-02-26T00:41:17;6.60;99.90
17348;DHT22;8791;50.876;4.342;2024-02-26T00:43:44;6.60;99.90
17348;DHT22;8791;50.876;4.342;2024-02-26T00:46:11;6.60;99.90
17348;DHT22;8791;50.876;4.342;2024-02-26T00:48:38;6.60;99.90
17348;DHT22;8791;50.876;4.342;2024-02-26T00:51:06;6.60;99.90
17348;DHT22;8791;50.876;4.342;2024-02-26T00:53:34;6.60;99.90
17348;DHT22;8791;50.876;4.342;2024-02-26T00:56:01;6.60;99.90
17348;DHT22;8791;50.876;4.342;2024-02-26T00:58:27;6.70;99.90
17348;DHT22;8791;50.876;4.342;2024-02-26T01:00:54;6.70;99.90
17348;DHT22;8791;50.876;4.342;2024-02-26T01:03:21;6.70;99.90
17348;DHT22;8791;50.876;4.342;2024-02-26T01:05:48;6.70;99.90
17348;DHT22;8791;50.876;4.342;2024-02-26T01:08:16;6.70;99.90
17348;DHT22;8791;50.876;4.342;2024-02-26T01:10:43;6.60;99.90
17348;DHT22;8791;50.876;4.342;2024-02-26T01:13:10;6.60;99.90
17348;DHT22;8791;50.876;4.342;2024-02-26T01:15:37;6.60;99.90
17348;DHT22;8791;50.876;4.342;2024-02-26T01:18:04;6.60;99.90
17348;DHT22;8791;50.876;4.342;2024-02-26T01:20:31;6.60;99.90
17348;DHT22;8791;50.876;4.342;2024-02-26T01:22:57;6.60;99.90
17348;DHT22;8791;50.876;4.342;2024-02-26T01:25:26;6.60;99.90
17348;DHT22;8791;50.876;4.342;2024-02-26T01:27:53;6.60;99.90
17348;DHT22;8791;50.876;4.342;2024-02-26T01:30:20;6.60;99.90
17348;DHT22;8791;50.876;4.342;2024-02-26T01:32:46;6.60;99.90
17348;DHT22;8791;50.876;4.342;2024-02-26T01:35:13;6.60;99.90
17348;DHT22;8791;50.876;4.342;2024-02-26T01:37:40;6.50;99.90
17348;DHT22;8791;50.876;4.342;2024-02-26T01:40:08;6.50;99.90
17348;DHT22;8791;50.876;4.342;2024-02-26T01:42:39;6.50;99.90
17348;DHT22;8791;50.876;4.342;2024-02-26T01:45:09;6.50;99.90
17348;DHT22;8791;50.876;4.342;2024-02-26T01:47:41;6.50;99.90
17348;DHT22;8791;50.876;4.342;2024-02-26T01:50:08;6.50;99.90
17348;DHT22;8791;50.876;4.342;2024-02-26T01:52:35;6.40;99.90
17348;DHT22;8791;50.876;4.342;2024-02-26T01:55:02;6.40;99.90
17348;DHT22;8791;50.876;4.342;2024-02-26T01:57:29;6.40;99.90
17348;DHT22;8791;50.876;4.342;2024-02-26T01:59:57;6.40;99.90
17348;DHT22;8791;50.876;4.342;2024-02-26T02:02:24;6.40;99.90
17348;DHT22;8791;50.876;4.342;2024-02-26T02:04:52;6.40;99.90
17348;DHT22;8791;50.876;4.342;2024-02-26T02:07:19;6.50;99.90
17348;DHT22;8791;50.876;4.342;2024-02-26T02:09:47;6.40;99.90
17348;DHT22;8791;50.876;4.342;2024-02-26T02:12:14;6.40;99.90
17348;DHT22;8791;50.876;4.342;2024-02-26T02:14:41;6.40;99.90
17348;DHT22;8791;50.876;4.342;2024-02-26T02:17:09;6.40;99.90
17348;DHT22;8791;50.876;4.342;2024-02-26T02:19:36;6.40;99.90
17348;DHT22;8791;50.876;4.342;2024-02-26T02:22:05;6.40;99.90
17348;DHT22;8791;50.876;4.342;2024-02-26T02:24:31;6.40;99.90
17348;DHT22;8791;50.876;4.342;2024-02-26T02:26:58;6.50;99.90
17348;DHT22;8791;50.876;4.342;2024-02-26T02:29:26;6.40;99.90
17348;DHT22;8791;50.876;4.342;2024-02-26T02:31:53;6.40;99.90
17348;DHT22;8791;50.876;4.342;2024-02-26T02:34:21;6.40;99.90
17348;DHT22;8791;50.876;4.342;2024-02-26T02:36:49;6.40;99.90
17348;DHT22;8791;50.876;4.342;2024-02-26T02:39:17;6.40;99.90
17348;DHT22;8791;50.876;4.342;2024-02-26T02:41:44;6.30;99.90
17348;DHT22;8791;50.876;4.342;2024-02-26T02:44:11;6.30;99.90
17348;DHT22;8791;50.876;4.342;2024-02-26T02:46:38;6.30;99.90
17348;DHT22;8791;50.876;4.342;2024-02-26T02:49:08;6.30;99.90
17348;DHT22;8791;50.876;4.342;2024-02-26T02:51:35;6.40;99.90
17348;DHT22;8791;50.876;4.342;2024-02-26T02:54:02;6.30;99.90
17348;DHT22;8791;50.876;4.342;2024-02-26T02:56:30;6.40;99.90
17348;DHT22;8791;50.876;4.342;2024-02-26T02:58:57;6.20;99.90
17348;DHT22;8791;50.876;4.342;2024-02-26T03:01:24;6.30;99.90
17348;DHT22;8791;50.876;4.342;2024-02-26T03:03:51;6.30;99.90
17348;DHT22;8791;50.876;4.342;2024-02-26T03:06:17;6.30;99.90
17348;DHT22;8791;50.876;4.342;2024-02-26T03:08:46;6.30;99.90
17348;DHT22;8791;50.876;4.342;2024-02-26T03:11:13;6.40;99.90
17348;DHT22;8791;50.876;4.342;2024-02-26T03:13:42;6.40;99.90
17348;DHT22;8791;50.876;4.342;2024-02-26T03:16:09;6.30;99.90
17348;DHT22;8791;50.876;4.342;2024-02-26T03:18:38;6.30;99.90
17348;DHT22;8791;50.876;4.342;2024-02-26T03:21:05;6.20;99.90
17348;DHT22;8791;50.876;4.342;2024-02-26T03:23:32;6.20;99.90
17348;DHT22;8791;50.876;4.342;2024-02-26T03:26:02;6.30;99.90
17348;DHT22;8791;50.876;4.342;2024-02-26T03:28:29;6.30;99.90
17348;DHT22;8791;50.876;4.342;2024-02-26T03:30:57;6.30;99.90
17348;DHT22;8791;50.876;4.342;2024-02-26T03:33:24;6.30;99.90
17348;DHT22;8791;50.876;4.342;2024-02-26T03:35:51;6.30;99.90
17348;DHT22;8791;50.876;4.342;2024-02-26T03:38:18;6.20;99.90
17348;DHT22;8791;50.876;4.342;2024-02-26T03:40:45;6.20;99.90
17348;DHT22;8791;50.876;4.342;2024-02-26T03:43:12;6.20;99.90
17348;DHT22;8791;50.876;4.342;2024-02-26T03:45:38;6.30;99.90
17348;DHT22;8791;50.876;4.342;2024-02-26T03:48:07;6.20;99.90
17348;DHT22;8791;50.876;4.342;2024-02-26T03:50:34;6.20;99.90
17348;DHT22;8791;50.876;4.342;2024-02-26T03:53:01;6.30;99.90
17348;DHT22;8791;50.876;4.342;2024-02-26T03:55:28;6.30;99.90
17348;DHT22;8791;50.876;4.342;2024-02-26T03:57:55;6.20;99.90
17348;DHT22;8791;50.876;4.342;2024-02-26T04:00:22;6.20;99.90
17348;DHT22;8791;50.876;4.342;2024-02-26T04:02:50;6.20;99.90
17348;DHT22;8791;50.876;4.342;2024-02-26T04:05:19;6.20;99.90
17348;DHT22;8791;50.876;4.342;2024-02-26T04:07:46;6.20;99.90
17348;DHT22;8791;50.876;4.342;2024-02-26T04:10:13;6.30;99.90
17348;DHT22;8791;50.876;4.342;2024-02-26T04:12:40;6.20;99.90
17348;DHT22;8791;50.876;4.342;2024-02-26T04:15:08;6.20;99.90
17348;DHT22;8791;50.876;4.342;2024-02-26T04:17:35;6.20;99.90
17348;DHT22;8791;50.876;4.342;2024-02-26T04:20:03;6.20;99.90
17348;DHT22;8791;50.876;4.342;2024-02-26T04:22:32;6.10;99.90
17348;DHT22;8791;50.876;4.342;2024-02-26T04:24:59;6.20;99.90
17348;DHT22;8791;50.876;4.342;2024-02-26T04:27:26;6.20;99.90
17348;DHT22;8791;50.876;4.342;2024-02-26T04:29:53;6.20;99.90
17348;DHT22;8791;50.876;4.342;2024-02-26T04:32:20;6.20;99.90
17348;DHT22;8791;50.876;4.342;2024-02-26T04:34:47;6.20;99.90
17348;DHT22;8791;50.876;4.342;2024-02-26T04:37:14;6.20;99.90
17348;DHT22;8791;50.876;4.342;2024-02-26T04:39:42;6.20;99.90
17348;DHT22;8791;50.876;4.342;2024-02-26T04:42:09;6.10;99.90
17348;DHT22;8791;50.876;4.342;2024-02-26T04:44:35;6.00;99.90
17348;DHT22;8791;50.876;4.342;2024-02-26T04:47:03;6.00;99.90
17348;DHT22;8791;50.876;4.342;2024-02-26T04:49:30;6.00;99.90
17348;DHT22;8791;50.876;4.342;2024-02-26T04:51:56;6.00;99.90
17348;DHT22;8791;50.876;4.342;2024-02-26T04:54:23;6.00;99.90
17348;DHT22;8791;50.876;4.342;2024-02-26T04:56:51;6.00;99.90
17348;DHT22;8791;50.876;4.342;2024-02-26T04:59:18;5.90;99.90
17348;DHT22;8791;50.876;4.342;2024-02-26T05:01:45;5.90;99.90
17348;DHT22;8791;50.876;4.342;2024-02-26T05:04:12;6.00;99.90
17348;DHT22;8791;50.876;4.342;2024-02-26T05:06:39;6.00;99.90
17348;DHT22;8791;50.876;4.342;2024-02-26T05:09:06;6.10;99.90
17348;DHT22;8791;50.876;4.342;2024-02-26T05:11:32;6.10;99.90
17348;DHT22;8791;50.876;4.342;2024-02-26T05:14:02;6.10;99.90
17348;DHT22;8791;50.876;4.342;2024-02-26T05:16:29;6.10;99.90
17348;DHT22;8791;50.876;4.342;2024-02-26T05:18:56;6.10;99.90
17348;DHT22;8791;50.876;4.342;2024-02-26T05:21:23;6.00;99.90
17348;DHT22;8791;50.876;4.342;2024-02-26T05:23:50;6.10;99.90
17348;DHT22;8791;50.876;4.342;2024-02-26T05:26:20;6.10;99.90
17348;DHT22;8791;50.876;4.342;2024-02-26T05:28:47;6.00;99.90
17348;DHT22;8791;50.876;4.342;2024-02-26T05:31:15;6.00;99.90
17348;DHT22;8791;50.876;4.342;2024-02-26T05:33:42;6.00;99.90
17348;DHT22;8791;50.876;4.342;2024-02-26T05:36:09;6.00;99.90
17348;DHT22;8791;50.876;4.342;2024-02-26T05:38:36;6.00;99.90
17348;DHT22;8791;50.876;4.342;2024-02-26T05:41:03;6.00;99.90
17348;DHT22;8791;50.876;4.342;2024-02-26T05:43:31;6.10;99.90
17348;DHT22;8791;50.876;4.342;2024-02-26T05:45:57;6.00;99.90
17348;DHT22;8791;50.876;4.342;2024-02-26T05:48:27;6.10;99.90
17348;DHT22;8791;50.876;4.342;2024-02-26T05:50:54;6.10;99.90
17348;DHT22;8791;50.876;4.342;2024-02-26T05:53:21;6.10;99.90
17348;DHT22;8791;50.876;4.342;2024-02-26T05:55:48;6.00;99.90
17348;DHT22;8791;50.876;4.342;2024-02-26T05:58:14;6.10;99.90
17348;DHT22;8791;50.876;4.342;2024-02-26T06:00:41;6.10;99.90
17348;DHT22;8791;50.876;4.342;2024-02-26T06:03:08;6.10;99.90
17348;DHT22;8791;50.876;4.342;2024-02-26T06:05:36;6.00;99.90
17348;DHT22;8791;50.876;4.342;2024-02-26T06:08:04;6.00;99.90
17348;DHT22;8791;50.876;4.342;2024-02-26T06:10:32;6.10;99.90
17348;DHT22;8791;50.876;4.342;2024-02-26T06:12:59;5.90;99.90
17348;DHT22;8791;50.876;4.342;2024-02-26T06:15:26;5.90;99.90
17348;DHT22;8791;50.876;4.342;2024-02-26T06:17:53;6.00;99.90
17348;DHT22;8791;50.876;4.342;2024-02-26T06:20:19;5.90;99.90
17348;DHT22;8791;50.876;4.342;2024-02-26T06:22:48;6.00;99.90
17348;DHT22;8791;50.876;4.342;2024-02-26T06:25:14;6.00;99.90
17348;DHT22;8791;50.876;4.342;2024-02-26T06:27:41;5.90;99.90
17348;DHT22;8791;50.876;4.342;2024-02-26T06:30:09;6.00;99.90
17348;DHT22;8791;50.876;4.342;2024-02-26T06:32:36;6.00;99.90
17348;DHT22;8791;50.876;4.342;2024-02-26T06:35:04;6.00;99.90
17348;DHT22;8791;50.876;4.342;2024-02-26T06:37:32;6.00;99.90
17348;DHT22;8791;50.876;4.342;2024-02-26T06:40:00;6.00;99.90
17348;DHT22;8791;50.876;4.342;2024-02-26T06:42:29;5.90;99.90
17348;DHT22;8791;50.876;4.342;2024-02-26T06:44:56;5.90;99.90
17348;DHT22;8791;50.876;4.342;2024-02-26T06:47:23;5.90;99.90
17348;DHT22;8791;50.876;4.342;2024-02-26T06:49:51;5.90;99.90
17348;DHT22;8791;50.876;4.342;2024-02-26T06:52:18;5.90;99.90
17348;DHT22;8791;50.876;4.342;2024-02-26T06:54:45;5.90;99.90
17348;DHT22;8791;50.876;4.342;2024-02-26T06:57:15;5.90;99.90
17348;DHT22;8791;50.876;4.342;2024-02-26T06:59:41;5.90;99.90
17348;DHT22;8791;50.876;4.342;2024-02-26T07:02:11;5.90;99.90
17348;DHT22;8791;50.876;4.342;2024-02-26T07:04:38;5.80;99.90
17348;DHT22;8791;50.876;4.342;2024-02-26T07:07:05;5.80;99.90
17348;DHT22;8791;50.876;4.342;2024-02-26T07:09:31;5.80;99.90
17348;DHT22;8791;50.876;4.342;2024-02-26T07:11:58;5.80;99.90
17348;DHT22;8791;50.876;4.342;2024-02-26T07:14:27;5.80;99.90
17348;DHT22;8791;50.876;4.342;2024-02-26T07:16:53;5.80;99.90
17348;DHT22;8791;50.876;4.342;2024-02-26T07:19:20;5.80;99.90
17348;DHT22;8791;50.876;4.342;2024-02-26T07:21:47;5.80;99.90
17348;DHT22;8791;50.876;4.342;2024-02-26T07:24:14;5.80;99.90
17348;DHT22;8791;50.876;4.342;2024-02-26T07:26:41;5.80;99.90
17348;DHT22;8791;50.876;4.342;2024-02-26T07:29:07;5.80;99.90
17348;DHT22;8791;50.876;4.342;2024-02-26T07:31:36;5.80;99.90
17348;DHT22;8791;50.876;4.342;2024-02-26T07:34:02;5.70;99.90
17348;DHT22;8791;50.876;4.342;2024-02-26T07:36:29;5.80;99.90
17348;DHT22;8791;50.876;4.342;2024-02-26T07:38:56;5.80;99.90
17348;DHT22;8791;50.876;4.342;2024-02-26T07:41:23;5.80;99.90
17348;DHT22;8791;50.876;4.342;2024-02-26T07:43:50;5.90;99.90
17348;DHT22;8791;50.876;4.342;2024-02-26T07:46:18;5.80;99.90
17348;DHT22;8791;50.876;4.342;2024-02-26T07:48:46;5.80;99.90
17348;DHT22;8791;50.876;4.342;2024-02-26T07:51:13;5.80;99.90
17348;DHT22;8791;50.876;4.342;2024-02-26T07:53:40;5.70;99.90
17348;DHT22;8791;50.876;4.342;2024-02-26T07:56:09;5.70;99.90
17348;DHT22;8791;50.876;4.342;2024-02-26T07:58:37;5.70;99.90
17348;DHT22;8791;50.876;4.342;2024-02-26T08:01:03;5.80;99.90
17348;DHT22;8791;50.876;4.342;2024-02-26T08:03:30;5.90;99.90
17348;DHT22;8791;50.876;4.342;2024-02-26T08:05:59;5.90;99.90
17348;DHT22;8791;50.876;4.342;2024-02-26T08:08:25;5.90;99.90
17348;DHT22;8791;50.876;4.342;2024-02-26T08:10:52;5.90;99.90
17348;DHT22;8791;50.876;4.342;2024-02-26T08:13:19;5.90;99.90
17348;DHT22;8791;50.876;4.342;2024-02-26T08:15:46;5.80;99.90
17348;DHT22;8791;50.876;4.342;2024-02-26T08:18:13;5.90;99.90
17348;DHT22;8791;50.876;4.342;2024-02-26T08:20:40;5.90;99.90
17348;DHT22;8791;50.876;4.342;2024-02-26T08:23:08;5.90;99.90
17348;DHT22;8791;50.876;4.342;2024-02-26T08:25:35;5.90;99.90
17348;DHT22;8791;50.876;4.342;2024-02-26T08:28:01;5.80;99.90
17348;DHT22;8791;50.876;4.342;2024-02-26T08:30:28;5.80;99.90
17348;DHT22;8791;50.876;4.342;2024-02-26T08:32:55;5.80;99.90
17348;DHT22;8791;50.876;4.342;2024-02-26T08:35:22;5.80;99.90
17348;DHT22;8791;50.876;4.342;2024-02-26T08:37:49;5.80;99.90
17348;DHT22;8791;50.876;4.342;2024-02-26T08:40:17;5.80;99.90
17348;DHT22;8791;50.876;4.342;2024-02-26T08:42:45;5.80;99.90
17348;DHT22;8791;50.876;4.342;2024-02-26T08:45:12;5.80;99.90
17348;DHT22;8791;50.876;4.342;2024-02-26T08:47:39;5.90;99.90
17348;DHT22;8791;50.876;4.342;2024-02-26T08:50:06;5.80;99.90
17348;DHT22;8791;50.876;4.342;2024-02-26T08:52:35;5.70;99.90
17348;DHT22;8791;50.876;4.342;2024-02-26T08:55:02;5.70;99.90
17348;DHT22;8791;50.876;4.342;2024-02-26T08:57:31;5.80;99.90
17348;DHT22;8791;50.876;4.342;2024-02-26T08:59:59;5.80;99.90
17348;DHT22;8791;50.876;4.342;2024-02-26T09:02:26;5.90;99.90
17348;DHT22;8791;50.876;4.342;2024-02-26T09:04:52;5.80;99.90
17348;DHT22;8791;50.876;4.342;2024-02-26T09:07:20;5.70;99.90
17348;DHT22;8791;50.876;4.342;2024-02-26T09:09:47;5.80;99.90
17348;DHT22;8791;50.876;4.342;2024-02-26T09:12:14;5.80;99.90
17348;DHT22;8791;50.876;4.342;2024-02-26T09:14:42;5.70;99.90
17348;DHT22;8791;50.876;4.342;2024-02-26T09:17:09;5.70;99.90
17348;DHT22;8791;50.876;4.342;2024-02-26T09:19:36;5.70;99.90
17348;DHT22;8791;50.876;4.342;2024-02-26T09:22:03;5.70;99.90
17348;DHT22;8791;50.876;4.342;2024-02-26T09:24:30;5.70;99.90
17348;DHT22;8791;50.876;4.342;2024-02-26T09:26:57;5.80;99.90
17348;DHT22;8791;50.876;4.342;2024-02-26T09:29:24;5.70;99.90
17348;DHT22;8791;50.876;4.342;2024-02-26T09:31:53;5.70;99.90
17348;DHT22;8791;50.876;4.342;2024-02-26T09:34:20;5.70;99.90
17348;DHT22;8791;50.876;4.342;2024-02-26T09:36:47;5.70;99.90
17348;DHT22;8791;50.876;4.342;2024-02-26T09:39:14;5.60;99.90
17348;DHT22;8791;50.876;4.342;2024-02-26T09:41:46;5.60;99.90
17348;DHT22;8791;50.876;4.342;2024-02-26T09:44:15;5.60;99.90
17348;DHT22;8791;50.876;4.342;2024-02-26T09:46:43;5.60;99.90
17348;DHT22;8791;50.876;4.342;2024-02-26T09:49:12;5.60;99.90
17348;DHT22;8791;50.876;4.342;2024-02-26T09:51:40;5.70;99.90
17348;DHT22;8791;50.876;4.342;2024-02-26T09:54:09;5.70;99.90
17348;DHT22;8791;50.876;4.342;2024-02-26T09:56:38;5.70;99.90
17348;DHT22;8791;50.876;4.342;2024-02-26T09:59:06;5.80;99.90
17348;DHT22;8791;50.876;4.342;2024-02-26T10:01:38;5.70;99.90
17348;DHT22;8791;50.876;4.342;2024-02-26T10:04:05;5.60;99.90
17348;DHT22;8791;50.876;4.342;2024-02-26T10:06:34;5.60;99.90
17348;DHT22;8791;50.876;4.342;2024-02-26T10:09:03;5.60;99.90
17348;DHT22;8791;50.876;4.342;2024-02-26T10:11:32;5.60;99.90
17348;DHT22;8791;50.876;4.342;2024-02-26T10:13:59;5.60;99.90
17348;DHT22;8791;50.876;4.342;2024-02-26T10:16:26;5.60;99.90
17348;DHT22;8791;50.876;4.342;2024-02-26T10:18:54;5.60;99.90
17348;DHT22;8791;50.876;4.342;2024-02-26T10:21:21;5.60;99.90
17348;DHT22;8791;50.876;4.342;2024-02-26T10:23:50;5.60;99.90
17348;DHT22;8791;50.876;4.342;2024-02-26T10:26:17;5.50;99.90
17348;DHT22;8791;50.876;4.342;2024-02-26T10:28:45;5.50;99.90
17348;DHT22;8791;50.876;4.342;2024-02-26T10:31:14;5.50;99.90
17348;DHT22;8791;50.876;4.342;2024-02-26T10:33:42;5.50;99.90
17348;DHT22;8791;50.876;4.342;2024-02-26T10:36:09;5.50;99.90
17348;DHT22;8791;50.876;4.342;2024-02-26T10:38:37;5.50;99.90
17348;DHT22;8791;50.876;4.342;2024-02-26T10:41:06;5.60;99.90
17348;DHT22;8791;50.876;4.342;2024-02-26T10:43:34;5.60;99.90
17348;DHT22;8791;50.876;4.342;2024-02-26T10:46:00;5.60;99.90
17348;DHT22;8791;50.876;4.342;2024-02-26T10:48:28;5.70;99.90
17348;DHT22;8791;50.876;4.342;2024-02-26T10:50:55;5.60;99.90
17348;DHT22;8791;50.876;4.342;2024-02-26T10:53:26;5.70;99.90
17348;DHT22;8791;50.876;4.342;2024-02-26T10:56:00;5.60;99.90
17348;DHT22;8791;50.876;4.342;2024-02-26T10:58:29;5.60;99.90
17348;DHT22;8791;50.876;4.342;2024-02-26T11:00:58;5.60;99.90
17348;DHT22;8791;50.876;4.342;2024-02-26T11:03:25;5.60;99.90
17348;DHT22;8791;50.876;4.342;2024-02-26T11:05:53;5.60;99.90
17348;DHT22;8791;50.876;4.342;2024-02-26T11:08:22;5.50;99.90
17348;DHT22;8791;50.876;4.342;2024-02-26T11:10:53;5.50;99.90
17348;DHT22;8791;50.876;4.342;2024-02-26T11:13:21;5.50;99.90
17348;DHT22;8791;50.876;4.342;2024-02-26T11:15:50;5.60;99.90
17348;DHT22;8791;50.876;4.342;2024-02-26T11:18:19;5.40;99.90
17348;DHT22;8791;50.876;4.342;2024-02-26T11:20:48;5.40;99.90
17348;DHT22;8791;50.876;4.342;2024-02-26T11:23:15;5.30;99.90
17348;DHT22;8791;50.876;4.342;2024-02-26T11:25:42;5.20;99.90
17348;DHT22;8791;50.876;4.342;2024-02-26T11:28:12;5.20;99.90
17348;DHT22;8791;50.876;4.342;2024-02-26T11:30:46;5.20;99.90
17348;DHT22;8791;50.876;4.342;2024-02-26T11:33:15;5.20;99.90
17348;DHT22;8791;50.876;4.342;2024-02-26T11:35:42;5.10;99.90
17348;DHT22;8791;50.876;4.342;2024-02-26T11:38:17;5.10;99.90
17348;DHT22;8791;50.876;4.342;2024-02-26T11:40:44;5.10;99.90
17348;DHT22;8791;50.876;4.342;2024-02-26T11:43:11;5.10;99.90
17348;DHT22;8791;50.876;4.342;2024-02-26T11:45:51;5.10;99.90
17348;DHT22;8791;50.876;4.342;2024-02-26T11:48:25;5.10;99.90
17348;DHT22;8791;50.876;4.342;2024-02-26T11:50:53;5.10;99.90
17348;DHT22;8791;50.876;4.342;2024-02-26T11:53:23;5.20;99.90
17348;DHT22;8791;50.876;4.342;2024-02-26T11:56:12;5.20;99.90
17348;DHT22;8791;50.876;4.342;2024-02-26T11:58:39;5.20;99.90
17348;DHT22;8791;50.876;4.342;2024-02-26T12:01:35;5.30;99.90
17348;DHT22;8791;50.876;4.342;2024-02-26T12:04:05;5.20;99.90
17348;DHT22;8791;50.876;4.342;2024-02-26T12:06:43;5.30;99.90
17348;DHT22;8791;50.876;4.342;2024-02-26T12:09:11;5.20;99.90
17348;DHT22;8791;50.876;4.342;2024-02-26T12:11:39;5.30;99.90
17348;DHT22;8791;50.876;4.342;2024-02-26T12:14:07;5.30;99.90
17348;DHT22;8791;50.876;4.342;2024-02-26T12:16:35;5.20;99.90
17348;DHT22;8791;50.876;4.342;2024-02-26T12:19:08;5.20;99.90
17348;DHT22;8791;50.876;4.342;2024-02-26T12:21:37;5.20;99.90
17348;DHT22;8791;50.876;4.342;2024-02-26T12:24:12;5.30;99.90
17348;DHT22;8791;50.876;4.342;2024-02-26T12:26:39;5.30;99.90
17348;DHT22;8791;50.876;4.342;2024-02-26T12:29:07;5.20;99.90
17348;DHT22;8791;50.876;4.342;2024-02-26T12:31:35;5.30;99.90
17348;DHT22;8791;50.876;4.342;2024-02-26T12:34:06;5.40;99.90
17348;DHT22;8791;50.876;4.342;2024-02-26T12:36:35;5.40;99.90
17348;DHT22;8791;50.876;4.342;2024-02-26T12:39:02;5.40;99.90
17348;DHT22;8791;50.876;4.342;2024-02-26T12:41:31;5.40;99.90
17348;DHT22;8791;50.876;4.342;2024-02-26T12:43:58;5.30;99.90
17348;DHT22;8791;50.876;4.342;2024-02-26T12:46:25;5.30;99.90
17348;DHT22;8791;50.876;4.342;2024-02-26T12:48:55;5.40;99.90
17348;DHT22;8791;50.876;4.342;2024-02-26T12:51:25;5.30;99.90
17348;DHT22;8791;50.876;4.342;2024-02-26T12:53:52;5.30;99.90
17348;DHT22;8791;50.876;4.342;2024-02-26T12:56:21;5.30;99.90
17348;DHT22;8791;50.876;4.342;2024-02-26T12:58:49;5.40;99.90
17348;DHT22;8791;50.876;4.342;2024-02-26T13:01:19;5.30;99.90
17348;DHT22;8791;50.876;4.342;2024-02-26T13:03:46;5.30;99.90
17348;DHT22;8791;50.876;4.342;2024-02-26T13:06:13;5.30;99.90
17348;DHT22;8791;50.876;4.342;2024-02-26T13:08:42;5.30;99.90
17348;DHT22;8791;50.876;4.342;2024-02-26T13:11:09;5.20;99.90
17348;DHT22;8791;50.876;4.342;2024-02-26T13:13:36;5.20;99.90
17348;DHT22;8791;50.876;4.342;2024-02-26T13:16:04;5.10;99.90
17348;DHT22;8791;50.876;4.342;2024-02-26T13:18:32;5.00;99.90
17348;DHT22;8791;50.876;4.342;2024-02-26T13:21:09;5.10;99.90
17348;DHT22;8791;50.876;4.342;2024-02-26T13:23:37;5.10;99.90
17348;DHT22;8791;50.876;4.342;2024-02-26T13:26:06;5.10;99.90
17348;DHT22;8791;50.876;4.342;2024-02-26T13:28:33;5.20;99.90
17348;DHT22;8791;50.876;4.342;2024-02-26T13:31:00;5.00;99.90
17348;DHT22;8791;50.876;4.342;2024-02-26T13:33:29;5.00;99.90
17348;DHT22;8791;50.876;4.342;2024-02-26T13:35:58;4.90;99.90
17348;DHT22;8791;50.876;4.342;2024-02-26T13:38:25;4.90;99.90
17348;DHT22;8791;50.876;4.342;2024-02-26T13:40:53;4.90;99.90
17348;DHT22;8791;50.876;4.342;2024-02-26T13:43:21;5.00;99.90
17348;DHT22;8791;50.876;4.342;2024-02-26T13:45:47;5.00;99.90
17348;DHT22;8791;50.876;4.342;2024-02-26T13:48:14;5.10;99.90
17348;DHT22;8791;50.876;4.342;2024-02-26T13:50:42;5.10;99.90
17348;DHT22;8791;50.876;4.342;2024-02-26T13:53:10;5.20;99.90
17348;DHT22;8791;50.876;4.342;2024-02-26T13:55:37;5.20;99.90
17348;DHT22;8791;50.876;4.342;2024-02-26T13:58:05;5.10;99.90
17348;DHT22;8791;50.876;4.342;2024-02-26T14:00:34;5.00;99.90
17348;DHT22;8791;50.876;4.342;2024-02-26T14:03:01;5.00;99.90
17348;DHT22;8791;50.876;4.342;2024-02-26T14:05:28;5.00;99.90
17348;DHT22;8791;50.876;4.342;2024-02-26T14:07:55;5.10;99.90
17348;DHT22;8791;50.876;4.342;2024-02-26T14:10:22;5.10;99.90
17348;DHT22;8791;50.876;4.342;2024-02-26T14:12:49;5.10;99.90
17348;DHT22;8791;50.876;4.342;2024-02-26T14:15:16;5.10;99.90
17348;DHT22;8791;50.876;4.342;2024-02-26T14:17:44;5.10;99.90
17348;DHT22;8791;50.876;4.342;2024-02-26T14:20:18;5.20;99.90
17348;DHT22;8791;50.876;4.342;2024-02-26T14:22:45;5.20;99.90
17348;DHT22;8791;50.876;4.342;2024-02-26T14:25:12;5.20;99.90
17348;DHT22;8791;50.876;4.342;2024-02-26T14:27:39;5.20;99.90
17348;DHT22;8791;50.876;4.342;2024-02-26T14:30:07;5.30;99.90
17348;DHT22;8791;50.876;4.342;2024-02-26T14:32:34;5.30;99.90
17348;DHT22;8791;50.876;4.342;2024-02-26T14:35:06;5.30;99.90
17348;DHT22;8791;50.876;4.342;2024-02-26T14:37:33;5.20;99.90
17348;DHT22;8791;50.876;4.342;2024-02-26T14:40:00;5.30;99.90
17348;DHT22;8791;50.876;4.342;2024-02-26T14:42:28;5.30;99.90
17348;DHT22;8791;50.876;4.342;2024-02-26T14:44:55;5.30;99.90
17348;DHT22;8791;50.876;4.342;2024-02-26T14:47:22;5.30;99.90
17348;DHT22;8791;50.876;4.342;2024-02-26T14:49:48;5.30;99.90
17348;DHT22;8791;50.876;4.342;2024-02-26T14:52:18;5.30;99.90
17348;DHT22;8791;50.876;4.342;2024-02-26T14:54:45;5.40;99.90
17348;DHT22;8791;50.876;4.342;2024-02-26T14:57:12;5.40;99.90
17348;DHT22;8791;50.876;4.342;2024-02-26T14:59:39;5.50;99.90
17348;DHT22;8791;50.876;4.342;2024-02-26T15:02:06;5.50;99.90
17348;DHT22;8791;50.876;4.342;2024-02-26T15:04:35;5.50;99.90
17348;DHT22;8791;50.876;4.342;2024-02-26T15:07:02;5.50;99.90
17348;DHT22;8791;50.876;4.342;2024-02-26T15:09:31;5.40;99.90
17348;DHT22;8791;50.876;4.342;2024-02-26T15:11:57;5.40;99.90
17348;DHT22;8791;50.876;4.342;2024-02-26T15:14:24;5.30;99.90
17348;DHT22;8791;50.876;4.342;2024-02-26T15:16:52;5.30;99.90
17348;DHT22;8791;50.876;4.342;2024-02-26T15:19:19;5.30;99.90
17348;DHT22;8791;50.876;4.342;2024-02-26T15:21:47;5.20;99.90
17348;DHT22;8791;50.876;4.342;2024-02-26T15:24:14;5.30;99.90
17348;DHT22;8791;50.876;4.342;2024-02-26T15:26:43;5.30;99.90
17348;DHT22;8791;50.876;4.342;2024-02-26T15:29:12;5.30;99.90
17348;DHT22;8791;50.876;4.342;2024-02-26T15:31:39;5.40;99.90
17348;DHT22;8791;50.876;4.342;2024-02-26T15:34:06;5.40;99.90
17348;DHT22;8791;50.876;4.342;2024-02-26T15:36:34;5.40;99.90
17348;DHT22;8791;50.876;4.342;2024-02-26T15:39:01;5.20;99.90
17348;DHT22;8791;50.876;4.342;2024-02-26T15:41:29;5.30;99.90
17348;DHT22;8791;50.876;4.342;2024-02-26T15:43:57;5.30;99.90
17348;DHT22;8791;50.876;4.342;2024-02-26T15:46:25;5.30;99.90
17348;DHT22;8791;50.876;4.342;2024-02-26T15:48:52;5.40;99.90
17348;DHT22;8791;50.876;4.342;2024-02-26T15:51:20;5.40;99.90
17348;DHT22;8791;50.876;4.342;2024-02-26T15:53:47;5.40;99.90
17348;DHT22;8791;50.876;4.342;2024-02-26T15:56:15;5.30;99.90
17348;DHT22;8791;50.876;4.342;2024-02-26T15:58:42;5.30;99.90
17348;DHT22;8791;50.876;4.342;2024-02-26T16:01:10;5.30;99.90
17348;DHT22;8791;50.876;4.342;2024-02-26T16:03:38;5.30;99.90
17348;DHT22;8791;50.876;4.342;2024-02-26T16:06:06;5.30;99.90